sensor_id;sensor_type;location;lat;lon;timestamp;pressure;altitude;pressure_sealevel;temperature;humidity
31183;BME280;17813;0.000;0.000;2022-12-13T00:02:08;115813.16;;;-143.88;81.02
31183;BME280;17813;0.000;0.000;2022-12-13T00:04:36;115813.16;;;-143.88;81.60
31183;BME280;17813;0.000;0.000;2022-12-13T00:07:03;78614.19;;;-143.88;81.17
31183;BME280;17813;0.000;0.000;2022-12-13T00:09:31;115813.16;;;-143.88;80.69
31183;BME280;17813;0.000;0.000;2022-12-13T00:12:12;115813.16;;;-143.88;80.54
31183;BME280;17813;0.000;0.000;2022-12-13T00:14:39;115813.16;;;-143.88;81.31
31183;BME280;17813;0.000;0.000;2022-12-13T00:17:07;115813.16;;;-143.88;80.29
31183;BME280;17813;0.000;0.000;2022-12-13T00:19:45;115813.16;;;-143.88;80.93
31183;BME280;17813;0.000;0.000;2022-12-13T00:22:13;115813.16;;;-143.88;80.88
31183;BME280;17813;0.000;0.000;2022-12-13T00:24:40;115813.16;;;-143.88;80.21
31183;BME280;17813;0.000;0.000;2022-12-13T00:27:15;115813.16;;;-143.88;80.62
31183;BME280;17813;0.000;0.000;2022-12-13T00:29:42;115813.16;;;-143.88;80.31
31183;BME280;17813;0.000;0.000;2022-12-13T00:32:14;115813.16;;;-143.88;80.97
31183;BME280;17813;0.000;0.000;2022-12-13T00:34:42;78614.19;;;-143.88;80.57
31183;BME280;17813;0.000;0.000;2022-12-13T00:37:09;61533.97;;;-143.88;0.00
31183;BME280;17813;0.000;0.000;2022-12-13T00:39:37;115813.16;;;-143.88;80.20
31183;BME280;17813;0.000;0.000;2022-12-13T00:42:05;115545.28;;;-143.88;80.57
31183;BME280;17813;0.000;0.000;2022-12-13T00:44:33;115545.28;;;-143.88;80.36
31183;BME280;17813;0.000;0.000;2022-12-13T00:50:15;115813.16;;;-143.88;80.23
31183;BME280;17813;0.000;0.000;2022-12-13T00:52:46;115545.28;;;-143.88;80.89
31183;BME280;17813;0.000;0.000;2022-12-13T00:55:23;115545.28;;;-143.88;80.66
31183;BME280;17813;0.000;0.000;2022-12-13T00:57:51;115545.28;;;-143.88;80.52
31183;BME280;17813;0.000;0.000;2022-12-13T01:00:19;115545.28;;;-143.88;81.21
31183;BME280;17813;0.000;0.000;2022-12-13T01:02:47;115545.28;;;-143.88;80.15
31183;BME280;17813;0.000;0.000;2022-12-13T01:05:15;115545.28;;;-143.88;79.72
31183;BME280;17813;0.000;0.000;2022-12-13T01:08:00;115545.28;;;-143.88;79.78
31183;BME280;17813;0.000;0.000;2022-12-13T01:10:31;115545.28;;;-143.88;80.55
31183;BME280;17813;0.000;0.000;2022-12-13T01:12:59;115545.28;;;-143.88;80.42
31183;BME280;17813;0.000;0.000;2022-12-13T01:15:28;115545.28;;;-143.88;80.61
31183;BME280;17813;0.000;0.000;2022-12-13T01:17:57;115545.28;;;-143.88;80.53
31183;BME280;17813;0.000;0.000;2022-12-13T01:20:35;115545.28;;;-143.88;80.39
31183;BME280;17813;0.000;0.000;2022-12-13T01:23:03;115813.16;;;-143.88;80.64
31183;BME280;17813;0.000;0.000;2022-12-13T01:25:32;115545.28;;;-143.88;80.81
31183;BME280;17813;0.000;0.000;2022-12-13T01:28:02;61533.97;;;-143.88;0.00
31183;BME280;17813;0.000;0.000;2022-12-13T01:30:30;115545.28;;;-143.88;80.58
31183;BME280;17813;0.000;0.000;2022-12-13T01:32:57;115545.28;;;-143.88;80.23
31183;BME280;17813;0.000;0.000;2022-12-13T01:35:25;115545.28;;;-143.88;80.68
31183;BME280;17813;0.000;0.000;2022-12-13T01:37:56;115545.28;;;-143.88;80.84
31183;BME280;17813;0.000;0.000;2022-12-13T01:40:45;115545.28;;;-143.88;80.94
31183;BME280;17813;0.000;0.000;2022-12-13T01:43:16;115545.28;;;-143.88;80.28
31183;BME280;17813;0.000;0.000;2022-12-13T01:45:44;115545.28;;;-143.88;80.57
31183;BME280;17813;0.000;0.000;2022-12-13T01:48:19;115545.28;;;-143.88;81.34
31183;BME280;17813;0.000;0.000;2022-12-13T01:50:51;99163.25;;;-142.58;80.66
31183;BME280;17813;0.000;0.000;2022-12-13T01:53:29;61533.97;;;-143.88;0.00
31183;BME280;17813;0.000;0.000;2022-12-13T01:56:11;115545.28;;;-143.88;80.77
31183;BME280;17813;0.000;0.000;2022-12-13T01:58:43;115545.28;;;-143.88;80.36
31183;BME280;17813;0.000;0.000;2022-12-13T02:01:12;115545.28;;;-143.88;79.95
31183;BME280;17813;0.000;0.000;2022-12-13T02:03:43;115545.28;;;-143.88;80.04
31183;BME280;17813;0.000;0.000;2022-12-13T02:09:13;115545.28;;;-143.88;80.97
31183;BME280;17813;0.000;0.000;2022-12-13T02:11:44;115545.28;;;-143.88;80.57
31183;BME280;17813;0.000;0.000;2022-12-13T02:14:12;78614.19;;;-143.88;80.92
31183;BME280;17813;0.000;0.000;2022-12-13T02:17:19;115545.28;;;-143.88;80.89
31183;BME280;17813;0.000;0.000;2022-12-13T02:31:50;115545.28;;;-143.88;80.67
31183;BME280;17813;0.000;0.000;2022-12-13T02:34:55;115545.28;;;-143.88;80.72
31183;BME280;17813;0.000;0.000;2022-12-13T02:37:31;115545.28;;;-143.88;80.07
31183;BME280;17813;0.000;0.000;2022-12-13T02:40:33;115545.28;;;-143.88;80.50
31183;BME280;17813;0.000;0.000;2022-12-13T02:43:20;115545.28;;;-143.88;80.82
31183;BME280;17813;0.000;0.000;2022-12-13T02:45:51;115545.28;;;-143.88;80.86
31183;BME280;17813;0.000;0.000;2022-12-13T02:48:26;115545.28;;;-143.88;81.42
31183;BME280;17813;0.000;0.000;2022-12-13T02:51:05;115545.28;;;-143.88;80.61
31183;BME280;17813;0.000;0.000;2022-12-13T02:53:47;115545.28;;;-143.88;80.74
31183;BME280;17813;0.000;0.000;2022-12-13T02:56:22;115545.28;;;-143.88;80.39
31183;BME280;17813;0.000;0.000;2022-12-13T02:58:53;115545.28;;;-143.88;80.59
31183;BME280;17813;0.000;0.000;2022-12-13T03:07:17;115545.28;;;-143.88;80.75
31183;BME280;17813;0.000;0.000;2022-12-13T03:10:05;115545.28;;;-143.88;80.07
31183;BME280;17813;0.000;0.000;2022-12-13T03:13:06;115545.28;;;-143.88;80.24
31183;BME280;17813;0.000;0.000;2022-12-13T03:15:59;115545.28;;;-143.88;79.74
31183;BME280;17813;0.000;0.000;2022-12-13T03:18:32;115545.28;;;-143.88;80.55
31183;BME280;17813;0.000;0.000;2022-12-13T03:21:08;61391.88;;;-143.88;100.00
31183;BME280;17813;0.000;0.000;2022-12-13T03:24:05;115545.28;;;-143.88;79.91
31183;BME280;17813;0.000;0.000;2022-12-13T03:26:40;115545.28;;;-143.88;79.47
31183;BME280;17813;0.000;0.000;2022-12-13T03:29:10;115545.28;;;-143.88;80.51
31183;BME280;17813;0.000;0.000;2022-12-13T03:31:53;115545.28;;;-143.88;80.51
31183;BME280;17813;0.000;0.000;2022-12-13T03:34:24;115545.28;;;-143.88;79.41
31183;BME280;17813;0.000;0.000;2022-12-13T03:37:22;115545.28;;;-143.88;79.71
31183;BME280;17813;0.000;0.000;2022-12-13T03:41:09;115545.28;;;-143.88;80.18
31183;BME280;17813;0.000;0.000;2022-12-13T03:43:36;115545.28;;;-143.88;79.72
31183;BME280;17813;0.000;0.000;2022-12-13T03:46:05;115545.28;;;-143.88;79.92
31183;BME280;17813;0.000;0.000;2022-12-13T03:48:52;115545.28;;;-143.88;80.39
31183;BME280;17813;0.000;0.000;2022-12-13T03:51:24;115545.28;;;-143.88;80.18
31183;BME280;17813;0.000;0.000;2022-12-13T03:53:54;115813.16;;;-143.88;79.42
31183;BME280;17813;0.000;0.000;2022-12-13T03:56:27;115545.28;;;-143.88;80.14
31183;BME280;17813;0.000;0.000;2022-12-13T03:59:19;115545.28;;;-143.88;79.94
31183;BME280;17813;0.000;0.000;2022-12-13T04:01:51;115545.28;;;-143.88;80.01
31183;BME280;17813;0.000;0.000;2022-12-13T04:04:26;115545.28;;;-143.88;80.16
31183;BME280;17813;0.000;0.000;2022-12-13T04:06:54;115545.28;;;-143.88;79.93
31183;BME280;17813;0.000;0.000;2022-12-13T04:09:59;115545.28;;;-143.88;80.71
31183;BME280;17813;0.000;0.000;2022-12-13T04:12:27;115545.28;;;-143.88;80.53
31183;BME280;17813;0.000;0.000;2022-12-13T04:15:16;115545.28;;;-143.88;80.66
31183;BME280;17813;0.000;0.000;2022-12-13T04:17:44;115545.28;;;-143.88;80.93
31183;BME280;17813;0.000;0.000;2022-12-13T04:20:26;115545.28;;;-143.88;80.96
31183;BME280;17813;0.000;0.000;2022-12-13T04:23:00;115545.28;;;-143.88;80.56
31183;BME280;17813;0.000;0.000;2022-12-13T04:25:28;115545.28;;;-143.88;80.88
31183;BME280;17813;0.000;0.000;2022-12-13T04:28:03;115545.28;;;-143.88;80.50
31183;BME280;17813;0.000;0.000;2022-12-13T04:30:42;115545.28;;;-143.88;80.69
31183;BME280;17813;0.000;0.000;2022-12-13T04:33:29;61391.88;;;-143.88;100.00
31183;BME280;17813;0.000;0.000;2022-12-13T04:36:14;115545.28;;;-143.88;80.25
31183;BME280;17813;0.000;0.000;2022-12-13T04:38:53;115545.28;;;-143.88;80.83
31183;BME280;17813;0.000;0.000;2022-12-13T04:41:21;115545.28;;;-143.88;80.52
31183;BME280;17813;0.000;0.000;2022-12-13T04:43:53;115545.28;;;-143.88;80.41
31183;BME280;17813;0.000;0.000;2022-12-13T04:46:23;115545.28;;;-143.88;80.60
31183;BME280;17813;0.000;0.000;2022-12-13T04:48:51;115545.28;;;-143.88;80.86
31183;BME280;17813;0.000;0.000;2022-12-13T04:51:18;115545.28;;;-143.88;81.18
31183;BME280;17813;0.000;0.000;2022-12-13T04:53:46;115545.28;;;-143.88;80.84
31183;BME280;17813;0.000;0.000;2022-12-13T04:56:17;115545.28;;;-143.88;80.96
31183;BME280;17813;0.000;0.000;2022-12-13T04:58:51;115545.28;;;-143.88;80.59
31183;BME280;17813;0.000;0.000;2022-12-13T05:01:33;115545.28;;;-143.88;80.56
31183;BME280;17813;0.000;0.000;2022-12-13T05:04:04;115545.28;;;-143.88;80.40
31183;BME280;17813;0.000;0.000;2022-12-13T05:06:31;115545.28;;;-143.88;80.04
31183;BME280;17813;0.000;0.000;2022-12-13T05:08:59;115545.28;;;-143.88;80.03
31183;BME280;17813;0.000;0.000;2022-12-13T05:11:28;115545.28;;;-143.88;79.88
31183;BME280;17813;0.000;0.000;2022-12-13T05:13:56;115545.28;;;-143.88;79.95
31183;BME280;17813;0.000;0.000;2022-12-13T05:16:30;115545.28;;;-143.88;80.02
31183;BME280;17813;0.000;0.000;2022-12-13T05:18:58;115545.28;;;-143.88;79.89
31183;BME280;17813;0.000;0.000;2022-12-13T05:21:34;115545.28;;;-143.88;80.14
31183;BME280;17813;0.000;0.000;2022-12-13T05:24:02;115545.28;;;-143.88;79.95
31183;BME280;17813;0.000;0.000;2022-12-13T05:26:46;115545.28;;;-143.88;79.98
31183;BME280;17813;0.000;0.000;2022-12-13T05:30:28;115545.28;;;-143.88;79.93
31183;BME280;17813;0.000;0.000;2022-12-13T05:33:28;115545.28;;;-143.88;79.95
31183;BME280;17813;0.000;0.000;2022-12-13T05:36:22;115545.28;;;-143.88;80.56
31183;BME280;17813;0.000;0.000;2022-12-13T05:38:52;115545.28;;;-143.88;79.69
31183;BME280;17813;0.000;0.000;2022-12-13T05:41:22;115545.28;;;-143.88;80.27
31183;BME280;17813;0.000;0.000;2022-12-13T05:43:52;115545.28;;;-143.88;80.18
31183;BME280;17813;0.000;0.000;2022-12-13T05:46:20;115545.28;;;-143.88;80.34
31183;BME280;17813;0.000;0.000;2022-12-13T05:48:47;115545.28;;;-143.88;79.96
31183;BME280;17813;0.000;0.000;2022-12-13T05:51:51;115545.28;;;-143.88;80.33
31183;BME280;17813;0.000;0.000;2022-12-13T05:54:44;115545.28;;;-143.88;80.22
31183;BME280;17813;0.000;0.000;2022-12-13T05:57:17;115545.28;;;-143.88;80.74
31183;BME280;17813;0.000;0.000;2022-12-13T05:59:45;115545.28;;;-143.88;80.69
31183;BME280;17813;0.000;0.000;2022-12-13T06:02:12;115545.28;;;-143.88;80.34
31183;BME280;17813;0.000;0.000;2022-12-13T06:04:46;115545.28;;;-143.88;80.61
31183;BME280;17813;0.000;0.000;2022-12-13T06:07:14;115545.28;;;-143.88;80.59
31183;BME280;17813;0.000;0.000;2022-12-13T06:09:44;115545.28;;;-143.88;80.41
31183;BME280;17813;0.000;0.000;2022-12-13T06:12:27;115545.28;;;-143.88;80.68
31183;BME280;17813;0.000;0.000;2022-12-13T06:15:32;115545.28;;;-143.88;80.64
31183;BME280;17813;0.000;0.000;2022-12-13T06:18:59;115545.28;;;-143.88;80.73
31183;BME280;17813;0.000;0.000;2022-12-13T06:21:32;115545.28;;;-143.88;80.79
31183;BME280;17813;0.000;0.000;2022-12-13T06:24:37;115545.28;;;-143.88;81.02
31183;BME280;17813;0.000;0.000;2022-12-13T06:27:06;115545.28;;;-143.88;80.76
31183;BME280;17813;0.000;0.000;2022-12-13T06:29:39;115545.28;;;-143.88;80.62
31183;BME280;17813;0.000;0.000;2022-12-13T06:32:12;115545.28;;;-143.88;80.79
31183;BME280;17813;0.000;0.000;2022-12-13T06:34:42;115545.28;;;-143.88;80.50
31183;BME280;17813;0.000;0.000;2022-12-13T06:37:11;115545.28;;;-143.88;80.14
31183;BME280;17813;0.000;0.000;2022-12-13T06:39:42;115545.28;;;-143.88;80.09
31183;BME280;17813;0.000;0.000;2022-12-13T06:42:15;115545.28;;;-143.88;79.88
31183;BME280;17813;0.000;0.000;2022-12-13T06:44:49;115545.28;;;-143.88;80.41
31183;BME280;17813;0.000;0.000;2022-12-13T06:47:34;115545.28;;;-143.88;79.94
31183;BME280;17813;0.000;0.000;2022-12-13T06:50:03;115545.28;;;-143.88;79.61
31183;BME280;17813;0.000;0.000;2022-12-13T06:52:52;115545.28;;;-143.88;80.13
31183;BME280;17813;0.000;0.000;2022-12-13T06:55:21;115545.28;;;-143.88;80.26
31183;BME280;17813;0.000;0.000;2022-12-13T06:57:50;115545.28;;;-143.88;80.21
31183;BME280;17813;0.000;0.000;2022-12-13T07:00:18;61391.88;;;-143.88;100.00
31183;BME280;17813;0.000;0.000;2022-12-13T07:02:54;115545.28;;;-143.88;80.13
31183;BME280;17813;0.000;0.000;2022-12-13T07:05:22;115545.28;;;-143.88;80.04
31183;BME280;17813;0.000;0.000;2022-12-13T07:07:51;115545.28;;;-143.88;80.34
31183;BME280;17813;0.000;0.000;2022-12-13T07:10:25;115545.28;;;-143.88;80.48
31183;BME280;17813;0.000;0.000;2022-12-13T07:12:54;61391.88;;;-143.88;100.00
31183;BME280;17813;0.000;0.000;2022-12-13T07:15:23;115545.28;;;-143.88;81.07
31183;BME280;17813;0.000;0.000;2022-12-13T07:17:51;115545.28;;;-143.88;80.59
31183;BME280;17813;0.000;0.000;2022-12-13T07:20:20;115545.28;;;-143.88;80.94
31183;BME280;17813;0.000;0.000;2022-12-13T07:22:49;115545.28;;;-143.88;80.92
31183;BME280;17813;0.000;0.000;2022-12-13T07:25:22;115545.28;;;-143.88;81.00
31183;BME280;17813;0.000;0.000;2022-12-13T07:28:09;115545.28;;;-143.88;81.01
31183;BME280;17813;0.000;0.000;2022-12-13T07:30:47;115545.28;;;-143.88;80.69
31183;BME280;17813;0.000;0.000;2022-12-13T07:33:15;115545.28;;;-143.88;80.51
31183;BME280;17813;0.000;0.000;2022-12-13T07:35:46;115545.28;;;-143.88;80.19
31183;BME280;17813;0.000;0.000;2022-12-13T07:38:14;115545.28;;;-143.88;79.98
31183;BME280;17813;0.000;0.000;2022-12-13T07:40:44;115545.28;;;-143.88;79.72
31183;BME280;17813;0.000;0.000;2022-12-13T07:43:17;115545.28;;;-143.88;80.06
31183;BME280;17813;0.000;0.000;2022-12-13T07:45:53;115545.28;;;-143.88;79.83
31183;BME280;17813;0.000;0.000;2022-12-13T07:48:44;115545.28;;;-143.88;80.05
31183;BME280;17813;0.000;0.000;2022-12-13T07:51:12;115545.28;;;-143.88;79.94
31183;BME280;17813;0.000;0.000;2022-12-13T07:53:50;115813.16;;;-143.88;79.47
31183;BME280;17813;0.000;0.000;2022-12-13T07:56:27;78754.50;;;-143.88;80.07
31183;BME280;17813;0.000;0.000;2022-12-13T07:58:55;115813.16;;;-143.88;79.44
31183;BME280;17813;0.000;0.000;2022-12-13T08:01:22;115813.16;;;-143.88;79.18
31183;BME280;17813;0.000;0.000;2022-12-13T08:03:49;115813.16;;;-143.88;77.68
31183;BME280;17813;0.000;0.000;2022-12-13T08:06:20;78093.09;;;-143.88;75.49
31183;BME280;17813;0.000;0.000;2022-12-13T08:08:48;115813.16;;;-143.88;75.12
31183;BME280;17813;0.000;0.000;2022-12-13T08:11:24;115813.16;;;-143.88;74.69
31183;BME280;17813;0.000;0.000;2022-12-13T08:13:54;78093.09;;;-143.88;74.26
31183;BME280;17813;0.000;0.000;2022-12-13T08:16:22;78093.09;;;-143.88;72.40
31183;BME280;17813;0.000;0.000;2022-12-13T08:18:51;78164.19;;;-142.58;71.62
31183;BME280;17813;0.000;0.000;2022-12-13T08:21:20;77997.31;;;-142.58;67.51
31183;BME280;17813;0.000;0.000;2022-12-13T08:23:48;77867.06;;;-142.58;63.83
31183;BME280;17813;0.000;0.000;2022-12-13T08:26:16;77795.81;;;-142.58;60.98
31183;BME280;17813;0.000;0.000;2022-12-13T08:28:43;77639.13;;;-142.58;59.76
31183;BME280;17813;0.000;0.000;2022-12-13T08:31:30;77549.69;;;-142.58;57.83
31183;BME280;17813;0.000;0.000;2022-12-13T08:34:01;77480.38;;;-142.58;52.72
31183;BME280;17813;0.000;0.000;2022-12-13T08:36:31;77342.13;;;-142.58;55.39
31183;BME280;17813;0.000;0.000;2022-12-13T08:39:03;77301.31;;;-142.58;51.74
31183;BME280;17813;0.000;0.000;2022-12-13T08:41:34;77215.84;;;-142.58;51.97
31183;BME280;17813;0.000;0.000;2022-12-13T08:44:03;77091.72;;;-142.58;50.09
31183;BME280;17813;0.000;0.000;2022-12-13T08:46:34;77038.81;;;-142.58;49.29
31183;BME280;17813;0.000;0.000;2022-12-13T08:49:01;76977.78;;;-142.58;50.17
31183;BME280;17813;0.000;0.000;2022-12-13T08:51:29;76977.78;;;-142.58;48.86
31183;BME280;17813;0.000;0.000;2022-12-13T08:53:57;76973.72;;;-142.58;49.43
31183;BME280;17813;0.000;0.000;2022-12-13T08:56:24;76984.00;;;-142.58;48.17
31183;BME280;17813;0.000;0.000;2022-12-13T08:58:52;77114.09;;;-142.58;47.38
31183;BME280;17813;0.000;0.000;2022-12-13T09:01:20;77169.06;;;-142.58;48.79
31183;BME280;17813;0.000;0.000;2022-12-13T09:03:47;77244.47;;;-142.58;47.92
31183;BME280;17813;0.000;0.000;2022-12-13T09:06:16;77277.03;;;-142.58;48.81
31183;BME280;17813;0.000;0.000;2022-12-13T09:08:52;77268.75;;;-142.58;50.41
31183;BME280;17813;0.000;0.000;2022-12-13T09:11:21;77266.72;;;-142.58;49.01
31183;BME280;17813;0.000;0.000;2022-12-13T09:13:51;77262.66;;;-142.58;48.33
31183;BME280;17813;0.000;0.000;2022-12-13T09:16:20;77272.81;;;-142.58;48.09
31183;BME280;17813;0.000;0.000;2022-12-13T09:18:53;77132.44;;;-142.58;47.99
31183;BME280;17813;0.000;0.000;2022-12-13T09:21:20;76908.59;;;-142.58;46.86
31183;BME280;17813;0.000;0.000;2022-12-13T09:23:49;76784.50;;;-142.58;44.79
31183;BME280;17813;0.000;0.000;2022-12-13T09:26:20;76676.66;;;-142.58;43.28
31183;BME280;17813;0.000;0.000;2022-12-13T09:28:48;76680.75;;;-142.58;41.30
31183;BME280;17813;0.000;0.000;2022-12-13T09:31:19;76585.13;;;-142.58;41.30
31183;BME280;17813;0.000;0.000;2022-12-13T09:33:47;76587.16;;;-142.58;41.50
31183;BME280;17813;0.000;0.000;2022-12-13T09:36:17;76576.97;;;-142.58;41.33
31183;BME280;17813;0.000;0.000;2022-12-13T09:38:50;99083.75;;;5.22;39.91
31183;BME280;17813;0.000;0.000;2022-12-13T09:41:27;99078.59;;;5.21;37.43
31183;BME280;17813;0.000;0.000;2022-12-13T09:44:15;99075.63;;;4.89;37.39
31183;BME280;17813;0.000;0.000;2022-12-13T09:46:46;99070.84;;;4.78;39.24
31183;BME280;17813;0.000;0.000;2022-12-13T09:49:30;76491.66;;;-142.58;39.24
31183;BME280;17813;0.000;0.000;2022-12-13T09:52:04;76534.25;;;-143.88;37.74
31183;BME280;17813;0.000;0.000;2022-12-13T09:54:34;99065.53;;;5.17;39.48
31183;BME280;17813;0.000;0.000;2022-12-13T09:57:02;99060.25;;;5.38;38.50
31183;BME280;17813;0.000;0.000;2022-12-13T09:59:33;99051.78;;;5.50;37.99
31183;BME280;17813;0.000;0.000;2022-12-13T10:02:22;99051.69;;;4.95;38.11
31183;BME280;17813;0.000;0.000;2022-12-13T10:04:59;99043.88;;;5.50;37.53
31183;BME280;17813;0.000;0.000;2022-12-13T10:07:40;99044.78;;;5.85;38.06
31183;BME280;17813;0.000;0.000;2022-12-13T10:10:13;99035.09;;;6.22;37.20
31183;BME280;17813;0.000;0.000;2022-12-13T10:12:55;99044.19;;;5.25;37.01
31183;BME280;17813;0.000;0.000;2022-12-13T10:15:27;99045.13;;;5.24;38.15
31183;BME280;17813;0.000;0.000;2022-12-13T10:17:59;99043.81;;;5.14;38.51
31183;BME280;17813;0.000;0.000;2022-12-13T10:20:29;99041.94;;;5.54;38.26
31183;BME280;17813;0.000;0.000;2022-12-13T10:22:57;99037.72;;;5.68;37.82
31183;BME280;17813;0.000;0.000;2022-12-13T10:25:55;99036.13;;;5.47;37.06
31183;BME280;17813;0.000;0.000;2022-12-13T10:28:30;99025.88;;;5.96;36.85
31183;BME280;17813;0.000;0.000;2022-12-13T10:30:59;99027.50;;;6.16;37.16
31183;BME280;17813;0.000;0.000;2022-12-13T10:33:37;99026.25;;;6.05;36.28
31183;BME280;17813;0.000;0.000;2022-12-13T10:36:15;99035.31;;;5.64;36.05
31183;BME280;17813;0.000;0.000;2022-12-13T10:38:56;99020.97;;;5.88;37.85
31183;BME280;17813;0.000;0.000;2022-12-13T10:41:32;99018.28;;;5.90;37.18
31183;BME280;17813;0.000;0.000;2022-12-13T10:44:21;99022.34;;;5.78;36.13
31183;BME280;17813;0.000;0.000;2022-12-13T10:49:39;99017.31;;;6.42;36.32
31183;BME280;17813;0.000;0.000;2022-12-13T10:54:53;99007.44;;;6.63;36.77
31183;BME280;17813;0.000;0.000;2022-12-13T10:57:24;99008.03;;;6.68;36.75
31183;BME280;17813;0.000;0.000;2022-12-13T10:59:52;99006.25;;;6.36;36.79
31183;BME280;17813;0.000;0.000;2022-12-13T11:02:35;98994.56;;;6.41;36.14
31183;BME280;17813;0.000;0.000;2022-12-13T11:08:12;98998.75;;;6.28;36.06
31183;BME280;17813;0.000;0.000;2022-12-13T11:10:40;99001.84;;;6.36;36.92
31183;BME280;17813;0.000;0.000;2022-12-13T11:13:20;98983.22;;;6.06;37.13
31183;BME280;17813;0.000;0.000;2022-12-13T11:15:53;98982.78;;;6.64;36.62
31183;BME280;17813;0.000;0.000;2022-12-13T11:18:24;98989.53;;;6.70;36.51
31183;BME280;17813;0.000;0.000;2022-12-13T11:20:59;98983.69;;;5.97;36.69
31183;BME280;17813;0.000;0.000;2022-12-13T11:23:38;98987.53;;;6.07;36.78
31183;BME280;17813;0.000;0.000;2022-12-13T11:26:16;98995.94;;;5.62;37.41
31183;BME280;17813;0.000;0.000;2022-12-13T11:31:35;98991.88;;;4.81;38.43
31183;BME280;17813;0.000;0.000;2022-12-13T11:37:09;76491.53;;;-142.58;0.00
31183;BME280;17813;0.000;0.000;2022-12-13T11:39:47;76534.25;;;-143.88;39.53
31183;BME280;17813;0.000;0.000;2022-12-13T11:42:25;76568.84;;;-142.58;40.82
31183;BME280;17813;0.000;0.000;2022-12-13T11:45:04;76670.56;;;-142.58;41.69
31183;BME280;17813;0.000;0.000;2022-12-13T11:50:41;76831.28;;;-142.58;43.64
31183;BME280;17813;0.000;0.000;2022-12-13T11:53:37;76884.19;;;-142.58;45.72
31183;BME280;17813;0.000;0.000;2022-12-13T11:56:26;76931.00;;;-142.58;46.29
31183;BME280;17813;0.000;0.000;2022-12-13T11:59:21;99009.22;;;-142.58;48.48
31183;BME280;17813;0.000;0.000;2022-12-13T12:02:24;77047.09;;;-142.58;48.46
31183;BME280;17813;0.000;0.000;2022-12-13T12:05:04;77093.75;;;-142.58;50.29
31183;BME280;17813;0.000;0.000;2022-12-13T12:07:45;77142.59;;;-142.58;51.31
31183;BME280;17813;0.000;0.000;2022-12-13T12:10:27;77154.81;;;-142.58;51.68
31183;BME280;17813;0.000;0.000;2022-12-13T12:13:09;77207.72;;;-142.58;53.14
31183;BME280;17813;0.000;0.000;2022-12-13T12:18:46;77270.78;;;-142.58;55.99
31183;BME280;17813;0.000;0.000;2022-12-13T12:30:02;77309.59;;;-142.58;56.90
31183;BME280;17813;0.000;0.000;2022-12-13T12:32:36;77299.28;;;-142.58;57.45
31183;BME280;17813;0.000;0.000;2022-12-13T12:52:58;77309.59;;;-142.58;58.59
31183;BME280;17813;0.000;0.000;2022-12-13T12:58:29;77301.31;;;-142.58;58.67
31183;BME280;17813;0.000;0.000;2022-12-13T13:03:39;77305.38;;;-142.58;59.17
31183;BME280;17813;0.000;0.000;2022-12-13T13:06:26;77293.31;;;-142.58;60.00
31183;BME280;17813;0.000;0.000;2022-12-13T13:09:07;77285.03;;;-142.58;59.02
31183;BME280;17813;0.000;0.000;2022-12-13T13:11:40;77293.31;;;-142.58;60.17
31183;BME280;17813;0.000;0.000;2022-12-13T13:16:57;44326.91;;;-142.58;60.22
31183;BME280;17813;0.000;0.000;2022-12-13T13:22:01;77272.81;;;-142.58;59.46
31183;BME280;17813;0.000;0.000;2022-12-13T13:24:32;77258.59;;;-142.58;59.06
31183;BME280;17813;0.000;0.000;2022-12-13T13:29:42;77268.75;;;-142.58;60.01
31183;BME280;17813;0.000;0.000;2022-12-13T13:34:46;77291.13;;;-142.58;60.65
31183;BME280;17813;0.000;0.000;2022-12-13T13:37:26;77305.38;;;-142.58;61.78
31183;BME280;17813;0.000;0.000;2022-12-13T13:42:34;77051.16;;;-142.58;63.63
31183;BME280;17813;0.000;0.000;2022-12-13T13:45:27;77325.72;;;-142.58;0.00
31183;BME280;17813;0.000;0.000;2022-12-13T13:48:22;77287.06;;;-142.58;60.48
31183;BME280;17813;0.000;0.000;2022-12-13T14:02:40;77323.69;;;-142.58;60.43
31183;BME280;17813;0.000;0.000;2022-12-13T14:05:45;77313.53;;;-142.58;60.29
31183;BME280;17813;0.000;0.000;2022-12-13T14:11:22;77362.34;;;-142.58;63.05
31183;BME280;17813;0.000;0.000;2022-12-13T14:22:44;77478.34;;;-142.58;64.14
31183;BME280;17813;0.000;0.000;2022-12-13T14:33:51;77598.41;;;-142.58;65.85
31183;BME280;17813;0.000;0.000;2022-12-13T14:36:27;77565.97;;;-142.58;65.35
31183;BME280;17813;0.000;0.000;2022-12-13T14:39:14;77561.91;;;-142.58;65.35
31183;BME280;17813;0.000;0.000;2022-12-13T14:41:50;98978.97;;;-142.58;63.92
31183;BME280;17813;0.000;0.000;2022-12-13T14:44:32;77635.03;;;-142.58;64.58
31183;BME280;17813;0.000;0.000;2022-12-13T14:47:07;77630.97;;;-142.58;64.75
31183;BME280;17813;0.000;0.000;2022-12-13T14:49:47;77661.50;;;-142.58;66.47
31183;BME280;17813;0.000;0.000;2022-12-13T14:59:12;77749.13;;;-142.58;66.42
31183;BME280;17813;0.000;0.000;2022-12-13T15:01:41;77793.78;;;-142.58;67.56
31183;BME280;17813;0.000;0.000;2022-12-13T15:04:32;77810.19;;;-142.58;68.15
31183;BME280;17813;0.000;0.000;2022-12-13T15:10:00;77905.72;;;-142.58;70.41
31183;BME280;17813;0.000;0.000;2022-12-13T15:12:29;77871.13;;;-142.58;70.63
31183;BME280;17813;0.000;0.000;2022-12-13T15:15:07;77887.53;;;-142.58;69.95
31183;BME280;17813;0.000;0.000;2022-12-13T15:17:43;77911.94;;;-142.58;71.11
31183;BME280;17813;0.000;0.000;2022-12-13T15:20:27;77948.47;;;-143.88;71.23
31183;BME280;17813;0.000;0.000;2022-12-13T15:23:11;78007.59;;;-143.88;71.50
31183;BME280;17813;0.000;0.000;2022-12-13T15:25:42;78007.59;;;-143.88;70.64
31183;BME280;17813;0.000;0.000;2022-12-13T15:28:15;78013.59;;;-142.58;69.79
31183;BME280;17813;0.000;0.000;2022-12-13T15:30:44;77981.03;;;-142.58;70.02
31183;BME280;17813;0.000;0.000;2022-12-13T15:33:22;77997.31;;;-143.88;70.29
31183;BME280;17813;0.000;0.000;2022-12-13T15:36:14;78038.13;;;-143.88;70.33
31183;BME280;17813;0.000;0.000;2022-12-13T15:38:59;78048.31;;;-143.88;69.82
31183;BME280;17813;0.000;0.000;2022-12-13T15:41:47;78052.38;;;-143.88;70.31
31183;BME280;17813;0.000;0.000;2022-12-13T15:44:29;78062.56;;;-143.88;70.39